sensor_id;sensor_type;location;lat;lon;timestamp;P1;durP1;ratioP1;P2;durP2;ratioP2
79452;SDS011;68899;52.116;5.404;2024-03-08T00:02:18;26.80;;;11.75;;
79452;SDS011;68899;52.116;5.404;2024-03-08T00:04:45;23.73;;;11.23;;
79452;SDS011;68899;52.116;5.404;2024-03-08T00:07:12;25.63;;;11.77;;
79452;SDS011;68899;52.116;5.404;2024-03-08T00:09:39;26.08;;;12.18;;
79452;SDS011;68899;52.116;5.404;2024-03-08T00:12:06;29.20;;;11.27;;
79452;SDS011;68899;52.116;5.404;2024-03-08T00:14:33;24.63;;;10.77;;
79452;SDS011;68899;52.116;5.404;2024-03-08T00:17:00;25.65;;;11.85;;
79452;SDS011;68899;52.116;5.404;2024-03-08T00:19:26;26.23;;;11.75;;
79452;SDS011;68899;52.116;5.404;2024-03-08T00:21:53;28.45;;;12.23;;
79452;SDS011;68899;52.116;5.404;2024-03-08T00:24:21;27.02;;;11.40;;
79452;SDS011;68899;52.116;5.404;2024-03-08T00:26:51;23.95;;;11.05;;
79452;SDS011;68899;52.116;5.404;2024-03-08T00:29:20;26.55;;;11.30;;
79452;SDS011;68899;52.116;5.404;2024-03-08T00:31:46;25.55;;;11.25;;
79452;SDS011;68899;52.116;5.404;2024-03-08T00:34:13;25.42;;;11.98;;
79452;SDS011;68899;52.116;5.404;2024-03-08T00:36:40;29.60;;;11.95;;
79452;SDS011;68899;52.116;5.404;2024-03-08T00:39:07;24.83;;;11.05;;
79452;SDS011;68899;52.116;5.404;2024-03-08T00:41:34;28.17;;;11.80;;
79452;SDS011;68899;52.116;5.404;2024-03-08T00:44:00;26.83;;;11.38;;
79452;SDS011;68899;52.116;5.404;2024-03-08T00:46:27;25.80;;;11.05;;
79452;SDS011;68899;52.116;5.404;2024-03-08T00:48:55;25.10;;;11.43;;
79452;SDS011;68899;52.116;5.404;2024-03-08T00:51:23;23.05;;;10.80;;
79452;SDS011;68899;52.116;5.404;2024-03-08T00:53:49;23.90;;;11.30;;
79452;SDS011;68899;52.116;5.404;2024-03-08T00:56:16;25.40;;;11.15;;
79452;SDS011;68899;52.116;5.404;2024-03-08T00:58:42;26.00;;;11.68;;
79452;SDS011;68899;52.116;5.404;2024-03-08T01:01:09;29.13;;;11.93;;
79452;SDS011;68899;52.116;5.404;2024-03-08T01:03:36;26.27;;;12.43;;
79452;SDS011;68899;52.116;5.404;2024-03-08T01:06:02;25.55;;;10.75;;
79452;SDS011;68899;52.116;5.404;2024-03-08T01:08:29;25.17;;;11.15;;
79452;SDS011;68899;52.116;5.404;2024-03-08T01:10:56;27.13;;;11.75;;
79452;SDS011;68899;52.116;5.404;2024-03-08T01:13:22;27.30;;;11.35;;
79452;SDS011;68899;52.116;5.404;2024-03-08T01:15:49;26.13;;;11.35;;
79452;SDS011;68899;52.116;5.404;2024-03-08T01:18:16;29.05;;;11.98;;
79452;SDS011;68899;52.116;5.404;2024-03-08T01:20:43;32.97;;;12.45;;
79452;SDS011;68899;52.116;5.404;2024-03-08T01:23:09;23.70;;;11.10;;
79452;SDS011;68899;52.116;5.404;2024-03-08T01:25:36;26.25;;;10.68;;
79452;SDS011;68899;52.116;5.404;2024-03-08T01:28:03;26.77;;;11.13;;
79452;SDS011;68899;52.116;5.404;2024-03-08T01:30:30;25.38;;;11.43;;
79452;SDS011;68899;52.116;5.404;2024-03-08T01:32:59;24.30;;;11.50;;
79452;SDS011;68899;52.116;5.404;2024-03-08T01:35:25;21.50;;;10.00;;
79452;SDS011;68899;52.116;5.404;2024-03-08T01:37:53;27.98;;;12.25;;
79452;SDS011;68899;52.116;5.404;2024-03-08T01:40:20;27.42;;;12.43;;
79452;SDS011;68899;52.116;5.404;2024-03-08T01:42:46;21.73;;;11.48;;
79452;SDS011;68899;52.116;5.404;2024-03-08T01:45:14;25.77;;;11.57;;
79452;SDS011;68899;52.116;5.404;2024-03-08T01:47:40;24.58;;;11.20;;
79452;SDS011;68899;52.116;5.404;2024-03-08T01:50:07;26.85;;;11.30;;
79452;SDS011;68899;52.116;5.404;2024-03-08T01:52:35;27.60;;;11.27;;
79452;SDS011;68899;52.116;5.404;2024-03-08T01:55:03;25.48;;;12.57;;
79452;SDS011;68899;52.116;5.404;2024-03-08T01:57:33;22.70;;;11.30;;
79452;SDS011;68899;52.116;5.404;2024-03-08T02:00:00;26.98;;;12.40;;
79452;SDS011;68899;52.116;5.404;2024-03-08T02:02:30;25.30;;;11.07;;
79452;SDS011;68899;52.116;5.404;2024-03-08T02:04:59;22.35;;;10.82;;
79452;SDS011;68899;52.116;5.404;2024-03-08T02:07:27;27.23;;;12.70;;
79452;SDS011;68899;52.116;5.404;2024-03-08T02:09:53;25.25;;;11.38;;
79452;SDS011;68899;52.116;5.404;2024-03-08T02:12:20;24.35;;;11.63;;
79452;SDS011;68899;52.116;5.404;2024-03-08T02:14:47;24.33;;;11.75;;
79452;SDS011;68899;52.116;5.404;2024-03-08T02:17:14;25.73;;;12.15;;
79452;SDS011;68899;52.116;5.404;2024-03-08T02:19:40;24.55;;;11.77;;
79452;SDS011;68899;52.116;5.404;2024-03-08T02:22:07;25.42;;;12.23;;
79452;SDS011;68899;52.116;5.404;2024-03-08T02:24:33;25.55;;;11.10;;
79452;SDS011;68899;52.116;5.404;2024-03-08T02:27:01;22.40;;;11.20;;
79452;SDS011;68899;52.116;5.404;2024-03-08T02:29:27;26.27;;;11.43;;
79452;SDS011;68899;52.116;5.404;2024-03-08T02:31:55;24.80;;;12.10;;
79452;SDS011;68899;52.116;5.404;2024-03-08T02:34:23;23.95;;;10.30;;
79452;SDS011;68899;52.116;5.404;2024-03-08T02:36:50;25.27;;;11.90;;
79452;SDS011;68899;52.116;5.404;2024-03-08T02:39:16;28.92;;;11.93;;
79452;SDS011;68899;52.116;5.404;2024-03-08T02:41:45;23.25;;;10.18;;
79452;SDS011;68899;52.116;5.404;2024-03-08T02:44:12;17.38;;;10.05;;
79452;SDS011;68899;52.116;5.404;2024-03-08T02:46:38;27.75;;;13.15;;
79452;SDS011;68899;52.116;5.404;2024-03-08T02:49:05;28.17;;;12.05;;
79452;SDS011;68899;52.116;5.404;2024-03-08T02:51:34;25.35;;;11.52;;
79452;SDS011;68899;52.116;5.404;2024-03-08T02:54:01;26.42;;;13.35;;
79452;SDS011;68899;52.116;5.404;2024-03-08T02:56:28;23.77;;;10.80;;
79452;SDS011;68899;52.116;5.404;2024-03-08T02:58:54;25.05;;;11.77;;
79452;SDS011;68899;52.116;5.404;2024-03-08T03:01:21;26.08;;;11.88;;
79452;SDS011;68899;52.116;5.404;2024-03-08T03:03:48;28.45;;;13.02;;
79452;SDS011;68899;52.116;5.404;2024-03-08T03:06:15;28.45;;;12.48;;
79452;SDS011;68899;52.116;5.404;2024-03-08T03:08:42;24.70;;;11.73;;
79452;SDS011;68899;52.116;5.404;2024-03-08T03:11:10;26.52;;;12.32;;
79452;SDS011;68899;52.116;5.404;2024-03-08T03:13:37;22.48;;;11.30;;
79452;SDS011;68899;52.116;5.404;2024-03-08T03:16:03;29.23;;;13.32;;
79452;SDS011;68899;52.116;5.404;2024-03-08T03:18:30;26.52;;;11.95;;
79452;SDS011;68899;52.116;5.404;2024-03-08T03:20:59;30.33;;;12.43;;
79452;SDS011;68899;52.116;5.404;2024-03-08T03:23:26;26.45;;;11.93;;
79452;SDS011;68899;52.116;5.404;2024-03-08T03:25:53;27.98;;;13.93;;
79452;SDS011;68899;52.116;5.404;2024-03-08T03:28:21;23.60;;;11.50;;
79452;SDS011;68899;52.116;5.404;2024-03-08T03:30:50;25.25;;;11.95;;
79452;SDS011;68899;52.116;5.404;2024-03-08T03:33:17;26.63;;;12.48;;
79452;SDS011;68899;52.116;5.404;2024-03-08T03:35:44;23.77;;;12.35;;
79452;SDS011;68899;52.116;5.404;2024-03-08T03:38:12;26.98;;;13.40;;
79452;SDS011;68899;52.116;5.404;2024-03-08T03:40:41;26.10;;;12.00;;
79452;SDS011;68899;52.116;5.404;2024-03-08T03:43:07;23.95;;;11.52;;
79452;SDS011;68899;52.116;5.404;2024-03-08T03:45:36;24.25;;;11.13;;
79452;SDS011;68899;52.116;5.404;2024-03-08T03:48:04;26.42;;;11.20;;
79452;SDS011;68899;52.116;5.404;2024-03-08T03:50:41;24.30;;;11.55;;
79452;SDS011;68899;52.116;5.404;2024-03-08T03:53:07;23.85;;;11.77;;
79452;SDS011;68899;52.116;5.404;2024-03-08T03:55:36;26.63;;;12.23;;
79452;SDS011;68899;52.116;5.404;2024-03-08T03:58:06;29.23;;;12.43;;
79452;SDS011;68899;52.116;5.404;2024-03-08T04:00:33;24.75;;;11.43;;
79452;SDS011;68899;52.116;5.404;2024-03-08T04:02:59;25.05;;;11.90;;
79452;SDS011;68899;52.116;5.404;2024-03-08T04:05:28;27.85;;;13.00;;
79452;SDS011;68899;52.116;5.404;2024-03-08T04:07:55;24.77;;;11.77;;
79452;SDS011;68899;52.116;5.404;2024-03-08T04:10:23;25.67;;;12.38;;
79452;SDS011;68899;52.116;5.404;2024-03-08T04:12:50;25.10;;;11.27;;
79452;SDS011;68899;52.116;5.404;2024-03-08T04:15:16;24.10;;;11.50;;
79452;SDS011;68899;52.116;5.404;2024-03-08T04:17:43;25.13;;;12.07;;
79452;SDS011;68899;52.116;5.404;2024-03-08T04:20:13;26.77;;;12.57;;
79452;SDS011;68899;52.116;5.404;2024-03-08T04:22:40;23.98;;;13.18;;
79452;SDS011;68899;52.116;5.404;2024-03-08T04:25:06;31.15;;;12.63;;
79452;SDS011;68899;52.116;5.404;2024-03-08T04:27:33;24.38;;;12.57;;
79452;SDS011;68899;52.116;5.404;2024-03-08T04:30:01;29.90;;;12.82;;
79452;SDS011;68899;52.116;5.404;2024-03-08T04:32:28;24.58;;;12.38;;
79452;SDS011;68899;52.116;5.404;2024-03-08T04:34:56;25.85;;;11.57;;
79452;SDS011;68899;52.116;5.404;2024-03-08T04:37:23;29.60;;;12.32;;
79452;SDS011;68899;52.116;5.404;2024-03-08T04:39:50;27.33;;;12.60;;
79452;SDS011;68899;52.116;5.404;2024-03-08T04:42:17;27.02;;;12.93;;
79452;SDS011;68899;52.116;5.404;2024-03-08T04:44:44;28.08;;;12.50;;
79452;SDS011;68899;52.116;5.404;2024-03-08T04:47:11;24.83;;;12.13;;
79452;SDS011;68899;52.116;5.404;2024-03-08T04:49:38;22.52;;;11.93;;
79452;SDS011;68899;52.116;5.404;2024-03-08T04:52:05;26.17;;;13.55;;
79452;SDS011;68899;52.116;5.404;2024-03-08T04:54:33;26.83;;;13.18;;
79452;SDS011;68899;52.116;5.404;2024-03-08T04:57:00;25.13;;;11.85;;
79452;SDS011;68899;52.116;5.404;2024-03-08T04:59:30;24.58;;;12.55;;
79452;SDS011;68899;52.116;5.404;2024-03-08T05:01:57;27.48;;;13.20;;
79452;SDS011;68899;52.116;5.404;2024-03-08T05:04:23;27.23;;;12.30;;
79452;SDS011;68899;52.116;5.404;2024-03-08T05:06:50;26.63;;;12.38;;
79452;SDS011;68899;52.116;5.404;2024-03-08T05:09:17;23.92;;;12.25;;
79452;SDS011;68899;52.116;5.404;2024-03-08T05:11:45;26.92;;;12.32;;
79452;SDS011;68899;52.116;5.404;2024-03-08T05:14:13;28.13;;;12.23;;
79452;SDS011;68899;52.116;5.404;2024-03-08T05:16:43;28.05;;;13.32;;
79452;SDS011;68899;52.116;5.404;2024-03-08T05:19:17;28.55;;;12.50;;
79452;SDS011;68899;52.116;5.404;2024-03-08T05:21:46;22.17;;;11.43;;
79452;SDS011;68899;52.116;5.404;2024-03-08T05:24:14;26.52;;;11.95;;
79452;SDS011;68899;52.116;5.404;2024-03-08T05:26:42;26.20;;;11.93;;
79452;SDS011;68899;52.116;5.404;2024-03-08T05:29:10;26.60;;;12.43;;
79452;SDS011;68899;52.116;5.404;2024-03-08T05:34:17;27.42;;;12.48;;
79452;SDS011;68899;52.116;5.404;2024-03-08T05:36:46;24.80;;;12.40;;
79452;SDS011;68899;52.116;5.404;2024-03-08T05:39:13;23.95;;;12.30;;
79452;SDS011;68899;52.116;5.404;2024-03-08T05:41:41;23.65;;;12.32;;
79452;SDS011;68899;52.116;5.404;2024-03-08T05:44:08;27.23;;;11.80;;
79452;SDS011;68899;52.116;5.404;2024-03-08T05:46:36;25.85;;;12.93;;
79452;SDS011;68899;52.116;5.404;2024-03-08T05:49:04;25.13;;;12.95;;
79452;SDS011;68899;52.116;5.404;2024-03-08T05:51:32;27.02;;;12.57;;
79452;SDS011;68899;52.116;5.404;2024-03-08T05:54:04;23.80;;;12.75;;
79452;SDS011;68899;52.116;5.404;2024-03-08T05:56:32;22.88;;;11.52;;
79452;SDS011;68899;52.116;5.404;2024-03-08T05:58:59;27.27;;;12.35;;
79452;SDS011;68899;52.116;5.404;2024-03-08T06:01:27;26.23;;;13.43;;
79452;SDS011;68899;52.116;5.404;2024-03-08T06:03:54;30.90;;;13.73;;
79452;SDS011;68899;52.116;5.404;2024-03-08T06:06:23;25.77;;;12.13;;
79452;SDS011;68899;52.116;5.404;2024-03-08T06:08:51;22.20;;;11.50;;
79452;SDS011;68899;52.116;5.404;2024-03-08T06:11:19;25.67;;;12.40;;
79452;SDS011;68899;52.116;5.404;2024-03-08T06:13:46;23.65;;;13.25;;
79452;SDS011;68899;52.116;5.404;2024-03-08T06:16:15;24.13;;;12.38;;
79452;SDS011;68899;52.116;5.404;2024-03-08T06:18:42;26.63;;;12.52;;
79452;SDS011;68899;52.116;5.404;2024-03-08T06:21:09;25.98;;;12.90;;
79452;SDS011;68899;52.116;5.404;2024-03-08T06:23:38;27.05;;;12.95;;
79452;SDS011;68899;52.116;5.404;2024-03-08T06:26:05;28.92;;;13.02;;
79452;SDS011;68899;52.116;5.404;2024-03-08T06:28:32;26.90;;;12.98;;
79452;SDS011;68899;52.116;5.404;2024-03-08T06:30:59;27.90;;;14.13;;
79452;SDS011;68899;52.116;5.404;2024-03-08T06:33:26;25.60;;;12.25;;
79452;SDS011;68899;52.116;5.404;2024-03-08T06:35:53;27.75;;;12.77;;
79452;SDS011;68899;52.116;5.404;2024-03-08T06:38:24;27.98;;;12.65;;
79452;SDS011;68899;52.116;5.404;2024-03-08T06:40:51;27.55;;;12.27;;
79452;SDS011;68899;52.116;5.404;2024-03-08T06:43:18;25.98;;;12.23;;
79452;SDS011;68899;52.116;5.404;2024-03-08T06:45:45;22.98;;;11.95;;
79452;SDS011;68899;52.116;5.404;2024-03-08T06:48:18;25.83;;;13.38;;
79452;SDS011;68899;52.116;5.404;2024-03-08T06:50:46;24.80;;;12.90;;
79452;SDS011;68899;52.116;5.404;2024-03-08T06:53:14;25.65;;;12.85;;
79452;SDS011;68899;52.116;5.404;2024-03-08T06:55:41;28.08;;;13.02;;
79452;SDS011;68899;52.116;5.404;2024-03-08T06:58:08;23.80;;;12.52;;
79452;SDS011;68899;52.116;5.404;2024-03-08T07:00:37;24.05;;;11.95;;
79452;SDS011;68899;52.116;5.404;2024-03-08T07:03:07;31.67;;;14.32;;
79452;SDS011;68899;52.116;5.404;2024-03-08T07:05:34;28.30;;;13.35;;
79452;SDS011;68899;52.116;5.404;2024-03-08T07:08:01;28.90;;;13.70;;
79452;SDS011;68899;52.116;5.404;2024-03-08T07:10:28;26.35;;;12.48;;
79452;SDS011;68899;52.116;5.404;2024-03-08T07:12:55;24.95;;;12.70;;
79452;SDS011;68899;52.116;5.404;2024-03-08T07:15:22;24.80;;;13.13;;
79452;SDS011;68899;52.116;5.404;2024-03-08T07:17:49;27.60;;;13.63;;
79452;SDS011;68899;52.116;5.404;2024-03-08T07:20:19;30.55;;;14.13;;
79452;SDS011;68899;52.116;5.404;2024-03-08T07:22:46;28.05;;;13.50;;
79452;SDS011;68899;52.116;5.404;2024-03-08T07:25:19;25.85;;;14.25;;
79452;SDS011;68899;52.116;5.404;2024-03-08T07:27:48;32.45;;;13.90;;
79452;SDS011;68899;52.116;5.404;2024-03-08T07:30:15;21.60;;;12.70;;
79452;SDS011;68899;52.116;5.404;2024-03-08T07:33:01;24.27;;;12.02;;
79452;SDS011;68899;52.116;5.404;2024-03-08T07:35:31;26.15;;;14.02;;
79452;SDS011;68899;52.116;5.404;2024-03-08T07:37:57;27.45;;;13.48;;
79452;SDS011;68899;52.116;5.404;2024-03-08T07:40:26;28.58;;;13.82;;
79452;SDS011;68899;52.116;5.404;2024-03-08T07:42:53;28.10;;;13.38;;
79452;SDS011;68899;52.116;5.404;2024-03-08T07:45:19;27.45;;;13.82;;
79452;SDS011;68899;52.116;5.404;2024-03-08T07:47:46;26.90;;;13.05;;
79452;SDS011;68899;52.116;5.404;2024-03-08T07:50:12;28.40;;;13.13;;
79452;SDS011;68899;52.116;5.404;2024-03-08T07:52:42;29.27;;;13.63;;
79452;SDS011;68899;52.116;5.404;2024-03-08T07:55:10;29.17;;;13.80;;
79452;SDS011;68899;52.116;5.404;2024-03-08T07:57:39;27.67;;;13.13;;
79452;SDS011;68899;52.116;5.404;2024-03-08T08:00:06;26.05;;;13.57;;
79452;SDS011;68899;52.116;5.404;2024-03-08T08:02:34;32.75;;;14.63;;
79452;SDS011;68899;52.116;5.404;2024-03-08T08:05:05;27.65;;;14.80;;
79452;SDS011;68899;52.116;5.404;2024-03-08T08:07:32;28.27;;;13.05;;
79452;SDS011;68899;52.116;5.404;2024-03-08T08:09:59;25.60;;;12.43;;
79452;SDS011;68899;52.116;5.404;2024-03-08T08:12:25;26.90;;;13.65;;
79452;SDS011;68899;52.116;5.404;2024-03-08T08:14:54;27.52;;;14.07;;
79452;SDS011;68899;52.116;5.404;2024-03-08T08:17:21;31.42;;;14.35;;
79452;SDS011;68899;52.116;5.404;2024-03-08T08:19:48;25.73;;;13.77;;
79452;SDS011;68899;52.116;5.404;2024-03-08T08:22:15;23.67;;;12.70;;
79452;SDS011;68899;52.116;5.404;2024-03-08T08:24:42;27.25;;;13.35;;
79452;SDS011;68899;52.116;5.404;2024-03-08T08:27:08;26.75;;;12.82;;
79452;SDS011;68899;52.116;5.404;2024-03-08T08:29:35;27.23;;;13.52;;
79452;SDS011;68899;52.116;5.404;2024-03-08T08:32:02;29.17;;;14.38;;
79452;SDS011;68899;52.116;5.404;2024-03-08T08:34:29;26.15;;;13.93;;
79452;SDS011;68899;52.116;5.404;2024-03-08T08:36:56;26.92;;;13.43;;
79452;SDS011;68899;52.116;5.404;2024-03-08T08:39:23;28.20;;;13.70;;
79452;SDS011;68899;52.116;5.404;2024-03-08T08:41:52;27.08;;;13.57;;
79452;SDS011;68899;52.116;5.404;2024-03-08T08:44:21;27.45;;;12.32;;
79452;SDS011;68899;52.116;5.404;2024-03-08T08:46:48;29.10;;;14.38;;
79452;SDS011;68899;52.116;5.404;2024-03-08T08:49:15;25.55;;;12.95;;
79452;SDS011;68899;52.116;5.404;2024-03-08T08:51:48;28.88;;;14.50;;
79452;SDS011;68899;52.116;5.404;2024-03-08T08:54:15;25.52;;;12.90;;
79452;SDS011;68899;52.116;5.404;2024-03-08T08:56:43;25.67;;;13.13;;
79452;SDS011;68899;52.116;5.404;2024-03-08T08:59:11;23.65;;;12.60;;
79452;SDS011;68899;52.116;5.404;2024-03-08T09:01:45;27.92;;;14.15;;
79452;SDS011;68899;52.116;5.404;2024-03-08T09:04:16;25.58;;;13.52;;
79452;SDS011;68899;52.116;5.404;2024-03-08T09:06:43;27.92;;;13.88;;
79452;SDS011;68899;52.116;5.404;2024-03-08T09:09:11;26.23;;;13.68;;
79452;SDS011;68899;52.116;5.404;2024-03-08T09:11:40;28.88;;;13.45;;
79452;SDS011;68899;52.116;5.404;2024-03-08T09:14:08;26.27;;;13.43;;
79452;SDS011;68899;52.116;5.404;2024-03-08T09:16:35;26.52;;;13.30;;
79452;SDS011;68899;52.116;5.404;2024-03-08T09:19:05;27.02;;;13.80;;
79452;SDS011;68899;52.116;5.404;2024-03-08T09:21:33;28.65;;;14.32;;
79452;SDS011;68899;52.116;5.404;2024-03-08T09:24:03;27.65;;;13.35;;
79452;SDS011;68899;52.116;5.404;2024-03-08T09:26:31;27.33;;;14.00;;
79452;SDS011;68899;52.116;5.404;2024-03-08T09:28:59;27.90;;;13.73;;
79452;SDS011;68899;52.116;5.404;2024-03-08T09:31:25;25.27;;;12.63;;
79452;SDS011;68899;52.116;5.404;2024-03-08T09:33:52;24.02;;;13.05;;
79452;SDS011;68899;52.116;5.404;2024-03-08T09:36:19;26.13;;;13.43;;
79452;SDS011;68899;52.116;5.404;2024-03-08T09:38:46;28.73;;;13.93;;
79452;SDS011;68899;52.116;5.404;2024-03-08T09:41:13;25.95;;;13.82;;
79452;SDS011;68899;52.116;5.404;2024-03-08T09:43:40;22.90;;;12.60;;
79452;SDS011;68899;52.116;5.404;2024-03-08T09:46:07;26.40;;;13.18;;
79452;SDS011;68899;52.116;5.404;2024-03-08T09:48:34;26.30;;;13.05;;
79452;SDS011;68899;52.116;5.404;2024-03-08T09:51:02;23.75;;;12.95;;
79452;SDS011;68899;52.116;5.404;2024-03-08T09:53:30;26.58;;;13.07;;
79452;SDS011;68899;52.116;5.404;2024-03-08T09:55:56;24.27;;;13.45;;
79452;SDS011;68899;52.116;5.404;2024-03-08T09:58:23;25.58;;;12.35;;
79452;SDS011;68899;52.116;5.404;2024-03-08T10:00:59;24.67;;;12.55;;
79452;SDS011;68899;52.116;5.404;2024-03-08T10:03:31;26.98;;;13.60;;
79452;SDS011;68899;52.116;5.404;2024-03-08T10:06:01;23.35;;;11.90;;
79452;SDS011;68899;52.116;5.404;2024-03-08T10:08:28;27.17;;;12.20;;
79452;SDS011;68899;52.116;5.404;2024-03-08T10:10:58;25.33;;;12.32;;
79452;SDS011;68899;52.116;5.404;2024-03-08T10:13:25;23.52;;;11.95;;
79452;SDS011;68899;52.116;5.404;2024-03-08T10:15:56;27.38;;;12.38;;
79452;SDS011;68899;52.116;5.404;2024-03-08T10:18:22;22.63;;;12.43;;
79452;SDS011;68899;52.116;5.404;2024-03-08T10:21:05;24.13;;;12.02;;
79452;SDS011;68899;52.116;5.404;2024-03-08T10:23:34;21.52;;;11.60;;
79452;SDS011;68899;52.116;5.404;2024-03-08T10:26:13;21.33;;;11.70;;
79452;SDS011;68899;52.116;5.404;2024-03-08T10:28:48;23.58;;;12.88;;
79452;SDS011;68899;52.116;5.404;2024-03-08T10:31:16;20.20;;;11.13;;
79452;SDS011;68899;52.116;5.404;2024-03-08T10:33:45;23.40;;;11.57;;
79452;SDS011;68899;52.116;5.404;2024-03-08T10:36:13;23.08;;;11.82;;
79452;SDS011;68899;52.116;5.404;2024-03-08T10:38:41;21.92;;;10.90;;
79452;SDS011;68899;52.116;5.404;2024-03-08T10:41:09;21.60;;;11.18;;
79452;SDS011;68899;52.116;5.404;2024-03-08T10:43:52;23.25;;;12.18;;
79452;SDS011;68899;52.116;5.404;2024-03-08T10:49:24;22.45;;;10.98;;
79452;SDS011;68899;52.116;5.404;2024-03-08T10:51:56;19.73;;;10.98;;
79452;SDS011;68899;52.116;5.404;2024-03-08T10:54:25;20.63;;;11.32;;
79452;SDS011;68899;52.116;5.404;2024-03-08T10:56:53;22.30;;;11.95;;
79452;SDS011;68899;52.116;5.404;2024-03-08T10:59:21;21.20;;;11.63;;
79452;SDS011;68899;52.116;5.404;2024-03-08T11:01:49;23.13;;;11.18;;
79452;SDS011;68899;52.116;5.404;2024-03-08T11:04:17;21.67;;;12.10;;
79452;SDS011;68899;52.116;5.404;2024-03-08T11:09:32;19.85;;;10.85;;
79452;SDS011;68899;52.116;5.404;2024-03-08T11:14:57;20.33;;;10.80;;
79452;SDS011;68899;52.116;5.404;2024-03-08T11:19:57;22.98;;;12.10;;
79452;SDS011;68899;52.116;5.404;2024-03-08T11:22:32;19.90;;;10.20;;
79452;SDS011;68899;52.116;5.404;2024-03-08T11:25:03;23.83;;;12.13;;
79452;SDS011;68899;52.116;5.404;2024-03-08T11:27:36;23.75;;;12.00;;
79452;SDS011;68899;52.116;5.404;2024-03-08T11:30:04;20.27;;;11.35;;
79452;SDS011;68899;52.116;5.404;2024-03-08T11:32:44;21.85;;;11.40;;
79452;SDS011;68899;52.116;5.404;2024-03-08T11:35:18;22.42;;;11.77;;
79452;SDS011;68899;52.116;5.404;2024-03-08T11:37:46;20.98;;;10.50;;
79452;SDS011;68899;52.116;5.404;2024-03-08T11:40:15;20.17;;;10.43;;
79452;SDS011;68899;52.116;5.404;2024-03-08T11:42:44;19.67;;;9.90;;
79452;SDS011;68899;52.116;5.404;2024-03-08T11:45:18;17.35;;;9.27;;
79452;SDS011;68899;52.116;5.404;2024-03-08T11:47:47;19.67;;;10.27;;
79452;SDS011;68899;52.116;5.404;2024-03-08T11:50:16;17.00;;;9.20;;
79452;SDS011;68899;52.116;5.404;2024-03-08T11:52:45;18.77;;;8.90;;
79452;SDS011;68899;52.116;5.404;2024-03-08T11:55:13;17.60;;;8.93;;
79452;SDS011;68899;52.116;5.404;2024-03-08T11:57:40;15.88;;;8.23;;
79452;SDS011;68899;52.116;5.404;2024-03-08T12:00:14;17.25;;;8.30;;
79452;SDS011;68899;52.116;5.404;2024-03-08T12:03:06;17.02;;;8.43;;
79452;SDS011;68899;52.116;5.404;2024-03-08T12:05:36;18.65;;;9.02;;
79452;SDS011;68899;52.116;5.404;2024-03-08T12:08:04;17.05;;;8.48;;
79452;SDS011;68899;52.116;5.404;2024-03-08T12:10:33;15.52;;;8.93;;
79452;SDS011;68899;52.116;5.404;2024-03-08T12:13:01;15.73;;;8.23;;
79452;SDS011;68899;52.116;5.404;2024-03-08T12:15:30;14.60;;;8.25;;
79452;SDS011;68899;52.116;5.404;2024-03-08T12:17:59;14.18;;;8.65;;
79452;SDS011;68899;52.116;5.404;2024-03-08T12:20:27;20.05;;;9.45;;
79452;SDS011;68899;52.116;5.404;2024-03-08T12:22:58;17.05;;;8.25;;
79452;SDS011;68899;52.116;5.404;2024-03-08T12:25:26;15.43;;;8.80;;
79452;SDS011;68899;52.116;5.404;2024-03-08T12:28:06;18.60;;;9.05;;
79452;SDS011;68899;52.116;5.404;2024-03-08T12:30:48;16.73;;;9.25;;
79452;SDS011;68899;52.116;5.404;2024-03-08T12:33:18;19.23;;;9.85;;
79452;SDS011;68899;52.116;5.404;2024-03-08T12:35:51;18.92;;;10.15;;
79452;SDS011;68899;52.116;5.404;2024-03-08T12:38:22;18.17;;;9.73;;
79452;SDS011;68899;52.116;5.404;2024-03-08T12:40:57;19.83;;;9.70;;
79452;SDS011;68899;52.116;5.404;2024-03-08T12:43:25;17.95;;;9.32;;
79452;SDS011;68899;52.116;5.404;2024-03-08T12:45:52;16.35;;;9.90;;
79452;SDS011;68899;52.116;5.404;2024-03-08T12:48:19;16.38;;;9.05;;
79452;SDS011;68899;52.116;5.404;2024-03-08T12:50:47;17.63;;;9.38;;
79452;SDS011;68899;52.116;5.404;2024-03-08T12:53:14;17.45;;;9.75;;
79452;SDS011;68899;52.116;5.404;2024-03-08T12:55:43;19.42;;;10.00;;
79452;SDS011;68899;52.116;5.404;2024-03-08T12:58:09;19.70;;;9.90;;
79452;SDS011;68899;52.116;5.404;2024-03-08T13:00:37;17.15;;;9.40;;
79452;SDS011;68899;52.116;5.404;2024-03-08T13:03:06;15.07;;;9.40;;
79452;SDS011;68899;52.116;5.404;2024-03-08T13:05:33;17.10;;;9.90;;
79452;SDS011;68899;52.116;5.404;2024-03-08T13:07:59;15.75;;;9.55;;
79452;SDS011;68899;52.116;5.404;2024-03-08T13:10:26;15.95;;;9.32;;
79452;SDS011;68899;52.116;5.404;2024-03-08T13:12:53;17.45;;;9.25;;
79452;SDS011;68899;52.116;5.404;2024-03-08T13:15:21;18.45;;;9.63;;
79452;SDS011;68899;52.116;5.404;2024-03-08T13:17:47;16.27;;;9.07;;
79452;SDS011;68899;52.116;5.404;2024-03-08T13:20:15;21.13;;;11.25;;
79452;SDS011;68899;52.116;5.404;2024-03-08T13:22:56;17.20;;;9.73;;
79452;SDS011;68899;52.116;5.404;2024-03-08T13:25:25;18.63;;;10.95;;
79452;SDS011;68899;52.116;5.404;2024-03-08T13:27:53;18.58;;;9.75;;
79452;SDS011;68899;52.116;5.404;2024-03-08T13:30:22;17.35;;;10.25;;
79452;SDS011;68899;52.116;5.404;2024-03-08T13:32:53;18.42;;;9.57;;
79452;SDS011;68899;52.116;5.404;2024-03-08T13:35:20;17.00;;;9.82;;
79452;SDS011;68899;52.116;5.404;2024-03-08T13:37:51;20.33;;;10.52;;
79452;SDS011;68899;52.116;5.404;2024-03-08T13:40:18;19.05;;;10.32;;
79452;SDS011;68899;52.116;5.404;2024-03-08T13:42:47;18.60;;;9.60;;
79452;SDS011;68899;52.116;5.404;2024-03-08T13:45:18;17.55;;;10.57;;
79452;SDS011;68899;52.116;5.404;2024-03-08T13:47:51;20.42;;;10.73;;
79452;SDS011;68899;52.116;5.404;2024-03-08T13:50:21;19.67;;;10.40;;
79452;SDS011;68899;52.116;5.404;2024-03-08T13:52:49;17.80;;;10.10;;
79452;SDS011;68899;52.116;5.404;2024-03-08T13:55:22;17.42;;;9.50;;
79452;SDS011;68899;52.116;5.404;2024-03-08T13:57:50;20.02;;;11.05;;
79452;SDS011;68899;52.116;5.404;2024-03-08T14:00:19;17.42;;;9.63;;
79452;SDS011;68899;52.116;5.404;2024-03-08T14:02:51;17.15;;;10.15;;
79452;SDS011;68899;52.116;5.404;2024-03-08T14:05:23;18.90;;;9.88;;
79452;SDS011;68899;52.116;5.404;2024-03-08T14:07:49;20.20;;;10.40;;
79452;SDS011;68899;52.116;5.404;2024-03-08T14:10:16;20.05;;;10.07;;
79452;SDS011;68899;52.116;5.404;2024-03-08T14:12:47;18.05;;;9.95;;
79452;SDS011;68899;52.116;5.404;2024-03-08T14:15:16;20.55;;;10.13;;
79452;SDS011;68899;52.116;5.404;2024-03-08T14:17:43;17.75;;;9.35;;
79452;SDS011;68899;52.116;5.404;2024-03-08T14:20:13;16.95;;;10.10;;
79452;SDS011;68899;52.116;5.404;2024-03-08T14:22:40;18.65;;;10.52;;
79452;SDS011;68899;52.116;5.404;2024-03-08T14:25:07;19.58;;;10.80;;
79452;SDS011;68899;52.116;5.404;2024-03-08T14:27:44;18.20;;;9.80;;
79452;SDS011;68899;52.116;5.404;2024-03-08T14:30:13;20.38;;;10.57;;
79452;SDS011;68899;52.116;5.404;2024-03-08T14:32:40;19.92;;;11.68;;
79452;SDS011;68899;52.116;5.404;2024-03-08T14:35:08;21.55;;;11.05;;
79452;SDS011;68899;52.116;5.404;2024-03-08T14:37:37;18.95;;;9.82;;
79452;SDS011;68899;52.116;5.404;2024-03-08T14:40:04;22.13;;;10.95;;
79452;SDS011;68899;52.116;5.404;2024-03-08T14:42:31;18.48;;;10.20;;
79452;SDS011;68899;52.116;5.404;2024-03-08T14:44:58;20.98;;;11.02;;